createdAt,value
2023-04-02T00:00:17.269Z,2.41
2023-04-02T00:00:49.936Z,2.43
2023-04-02T00:01:22.607Z,2.41
2023-04-02T00:01:55.314Z,2.42
2023-04-02T00:02:28.120Z,2.39
2023-04-02T00:03:00.910Z,2.41
2023-04-02T00:03:33.659Z,2.42
2023-04-02T00:04:06.349Z,2.45
2023-04-02T00:04:39.027Z,2.43
2023-04-02T00:05:11.709Z,2.43
2023-04-02T00:05:44.378Z,2.43
2023-04-02T00:06:17.072Z,2.45
2023-04-02T00:06:49.753Z,2.45
2023-04-02T00:07:22.422Z,2.46
2023-04-02T00:07:55.103Z,2.45
2023-04-02T00:08:27.780Z,2.45
2023-04-02T00:09:00.453Z,2.43
2023-04-02T00:09:33.150Z,2.43
2023-04-02T00:10:05.780Z,2.43
2023-04-02T00:10:38.458Z,2.43
2023-04-02T00:11:11.114Z,2.43
2023-04-02T00:11:43.807Z,2.42
2023-04-02T00:12:16.475Z,2.43
2023-04-02T00:12:49.163Z,2.43
2023-04-02T00:13:21.830Z,2.42
2023-04-02T00:13:54.506Z,2.42
2023-04-02T00:14:27.170Z,2.39
2023-04-02T00:14:59.834Z,2.42
2023-04-02T00:15:32.825Z,2.41
2023-04-02T00:15:59.174Z,2.41
2023-04-02T00:16:31.874Z,2.42
2023-04-02T00:17:04.539Z,2.41
2023-04-02T00:17:37.197Z,2.41
2023-04-02T00:18:09.917Z,2.41
2023-04-02T00:18:42.585Z,2.41
2023-04-02T00:19:15.254Z,2.41
2023-04-02T00:19:47.909Z,2.39
2023-04-02T00:20:20.582Z,2.39
2023-04-02T00:20:53.248Z,2.39
2023-04-02T00:21:25.942Z,2.41
2023-04-02T00:21:58.624Z,2.39
2023-04-02T00:22:31.293Z,2.39
2023-04-02T00:23:03.966Z,2.38
2023-04-02T00:23:36.625Z,2.41
2023-04-02T00:24:09.306Z,2.39
2023-04-02T00:24:41.982Z,2.39
2023-04-02T00:25:14.650Z,2.39
2023-04-02T00:25:47.328Z,2.38
2023-04-02T00:26:20.004Z,2.39
2023-04-02T00:26:52.676Z,2.38
2023-04-02T00:27:25.337Z,2.39
2023-04-02T00:27:58.004Z,2.38
2023-04-02T00:28:30.673Z,2.38
2023-04-02T00:29:03.416Z,2.38
2023-04-02T00:29:36.055Z,2.38
2023-04-02T00:30:08.744Z,2.38
2023-04-02T00:30:41.395Z,2.39
2023-04-02T00:31:14.073Z,2.36
2023-04-02T00:31:46.807Z,2.36
2023-04-02T00:32:19.641Z,2.38
2023-04-02T00:32:52.420Z,2.36
2023-04-02T00:33:25.077Z,2.35
2023-04-02T00:33:57.740Z,2.35
2023-04-02T00:34:30.409Z,2.34
2023-04-02T00:35:03.086Z,2.35
2023-04-02T00:35:35.989Z,2.36
2023-04-02T00:36:02.398Z,2.34
2023-04-02T00:36:35.092Z,2.36
2023-04-02T00:37:07.748Z,2.35
2023-04-02T00:37:40.412Z,2.34
2023-04-02T00:38:13.086Z,2.34
2023-04-02T00:38:47.492Z,2.35
2023-04-02T00:39:14.778Z,2.36
2023-04-02T00:39:47.469Z,2.36
2023-04-02T00:40:20.110Z,2.38
2023-04-02T00:40:52.782Z,2.36
2023-04-02T00:41:25.467Z,2.36
2023-04-02T00:41:58.170Z,2.36
2023-04-02T00:42:30.836Z,2.36
2023-04-02T00:43:03.521Z,2.36
2023-04-02T00:43:34.624Z,2.36
2023-04-02T00:44:07.300Z,2.36
2023-04-02T00:44:39.992Z,2.36
2023-04-02T00:45:12.659Z,2.35
2023-04-02T00:45:45.388Z,2.35
2023-04-02T00:46:18.165Z,2.36
2023-04-02T00:46:50.795Z,2.38
2023-04-02T00:47:23.465Z,2.36
2023-04-02T00:47:56.181Z,2.35
2023-04-02T00:48:28.931Z,2.35
2023-04-02T00:49:01.613Z,2.35
2023-04-02T00:49:34.280Z,2.35
2023-04-02T00:50:06.946Z,2.36
2023-04-02T00:50:39.614Z,2.34
2023-04-02T00:51:12.275Z,2.35
2023-04-02T00:51:44.968Z,2.36
2023-04-02T00:52:17.634Z,2.35
2023-04-02T00:52:50.293Z,2.36
2023-04-02T00:53:22.968Z,2.38
2023-04-02T00:53:55.622Z,2.35
2023-04-02T00:54:28.299Z,2.35
2023-04-02T00:55:00.993Z,2.36
2023-04-02T00:55:33.927Z,2.35
2023-04-02T00:56:00.248Z,2.36
2023-04-02T00:56:32.932Z,2.36
2023-04-02T00:57:05.684Z,2.34
2023-04-02T00:57:38.334Z,2.35
2023-04-02T00:58:11.000Z,2.34
2023-04-02T00:58:43.674Z,2.36
2023-04-02T00:59:16.349Z,2.38
2023-04-02T00:59:49.226Z,2.36
2023-04-02T01:00:21.888Z,2.36
2023-04-02T01:00:54.688Z,2.36
2023-04-02T01:01:27.429Z,2.35
2023-04-02T01:02:00.213Z,2.35
2023-04-02T01:02:33.046Z,2.34
2023-04-02T01:03:05.974Z,2.34
2023-04-02T01:03:38.830Z,2.34
2023-04-02T01:04:05.318Z,2.36
2023-04-02T01:04:37.994Z,2.35
2023-04-02T01:05:10.844Z,2.34
2023-04-02T01:05:43.592Z,2.36
2023-04-02T01:06:16.263Z,2.35
2023-04-02T01:06:48.928Z,2.35
2023-04-02T01:07:21.588Z,2.36
2023-04-02T01:07:54.258Z,2.36
2023-04-02T01:08:26.927Z,2.36
2023-04-02T01:08:59.601Z,2.36
2023-04-02T01:09:32.270Z,2.38
2023-04-02T01:10:05.057Z,2.36
2023-04-02T01:10:37.715Z,2.38
2023-04-02T01:11:10.381Z,2.36
2023-04-02T01:11:43.055Z,2.36
2023-04-02T01:12:15.724Z,2.38
2023-04-02T01:12:48.405Z,2.38
2023-04-02T01:13:21.070Z,2.38
2023-04-02T01:13:53.716Z,2.38
2023-04-02T01:14:26.393Z,2.36
2023-04-02T01:14:59.072Z,2.38
2023-04-02T01:15:31.772Z,2.36
2023-04-02T01:16:04.519Z,2.36
2023-04-02T01:16:37.203Z,2.36
2023-04-02T01:17:09.855Z,2.36
2023-04-02T01:17:42.629Z,2.38
2023-04-02T01:18:15.317Z,2.38
2023-04-02T01:18:48.002Z,2.35
2023-04-02T01:19:20.674Z,2.36
2023-04-02T01:19:53.343Z,2.35
2023-04-02T01:20:26.021Z,2.36
2023-04-02T01:20:58.692Z,2.38
2023-04-02T01:21:31.373Z,2.36
2023-04-02T01:22:04.040Z,2.36
2023-04-02T01:22:36.719Z,2.38
2023-04-02T01:23:09.417Z,2.38
2023-04-02T01:23:42.079Z,2.38
2023-04-02T01:24:14.752Z,2.35
2023-04-02T01:24:47.411Z,2.36
2023-04-02T01:25:20.102Z,2.36
2023-04-02T01:25:52.741Z,2.36
2023-04-02T01:26:25.432Z,2.35
2023-04-02T01:26:58.223Z,2.35
2023-04-02T01:27:30.871Z,2.34
2023-04-02T01:28:03.571Z,2.35
2023-04-02T01:28:36.231Z,2.36
2023-04-02T01:29:07.322Z,2.38
2023-04-02T01:29:39.991Z,2.38
2023-04-02T01:30:12.684Z,2.36
2023-04-02T01:30:45.340Z,2.38
2023-04-02T01:31:18.058Z,2.36
2023-04-02T01:31:50.748Z,2.39
2023-04-02T01:32:23.402Z,2.38
2023-04-02T01:32:56.103Z,2.39
2023-04-02T01:33:28.809Z,2.41
2023-04-02T01:34:01.456Z,2.39
2023-04-02T01:34:34.121Z,2.39
2023-04-02T01:35:06.792Z,2.39
2023-04-02T01:35:39.472Z,2.41
2023-04-02T01:36:12.201Z,2.42
2023-04-02T01:36:44.879Z,2.41
2023-04-02T01:37:17.554Z,2.41
2023-04-02T01:37:50.221Z,2.41
2023-04-02T01:38:22.888Z,2.43
2023-04-02T01:38:55.551Z,2.42
2023-04-02T01:39:28.222Z,2.43
2023-04-02T01:40:00.894Z,2.43
2023-04-02T01:40:33.610Z,2.42
2023-04-02T01:41:06.250Z,2.42
2023-04-02T01:41:38.927Z,2.43
2023-04-02T01:42:11.598Z,2.43
2023-04-02T01:42:44.265Z,2.43
2023-04-02T01:43:16.952Z,2.43
2023-04-02T01:43:49.618Z,2.43
2023-04-02T01:44:22.284Z,2.43
2023-04-02T01:44:54.946Z,2.41
2023-04-02T01:45:27.612Z,2.42
2023-04-02T01:46:00.288Z,2.42
2023-04-02T01:46:33.007Z,2.41
2023-04-02T01:47:05.686Z,2.42
2023-04-02T01:47:38.418Z,2.42
2023-04-02T01:48:11.092Z,2.42
2023-04-02T01:48:43.763Z,2.41
2023-04-02T01:49:14.862Z,2.41
2023-04-02T01:49:47.519Z,2.41
2023-04-02T01:50:20.191Z,2.39
2023-04-02T01:50:52.870Z,2.41
2023-04-02T01:51:25.538Z,2.39
2023-04-02T01:51:58.202Z,2.41
2023-04-02T01:52:30.866Z,2.41
2023-04-02T01:53:03.534Z,2.42
2023-04-02T01:53:36.196Z,2.42
2023-04-02T01:54:08.885Z,2.42
2023-04-02T01:54:41.545Z,2.41
2023-04-02T01:55:14.233Z,2.42
2023-04-02T01:55:46.931Z,2.43
2023-04-02T01:56:19.590Z,2.43
2023-04-02T01:56:52.281Z,2.41
2023-04-02T01:57:24.990Z,2.42
2023-04-02T01:57:57.663Z,2.42
2023-04-02T01:58:30.339Z,2.41
2023-04-02T01:59:03.005Z,2.41
2023-04-02T01:59:35.657Z,2.41
2023-04-02T02:00:08.336Z,2.42
2023-04-02T02:00:41.094Z,2.39
2023-04-02T02:01:13.773Z,2.42
2023-04-02T02:01:46.521Z,2.42
2023-04-02T02:02:19.189Z,2.41
2023-04-02T02:02:51.910Z,2.39
2023-04-02T02:03:24.598Z,2.39
2023-04-02T02:03:57.263Z,2.39
2023-04-02T02:04:29.928Z,2.39
2023-04-02T02:05:02.604Z,2.38
2023-04-02T02:05:35.443Z,2.41
2023-04-02T02:06:08.192Z,2.39
2023-04-02T02:06:40.875Z,2.41
2023-04-02T02:07:13.542Z,2.41
2023-04-02T02:07:46.203Z,2.39
2023-04-02T02:08:18.869Z,2.39
2023-04-02T02:08:51.557Z,2.41
2023-04-02T02:09:24.205Z,2.38
2023-04-02T02:09:56.881Z,2.39
2023-04-02T02:10:29.547Z,2.39
2023-04-02T02:11:02.238Z,2.39
2023-04-02T02:11:34.897Z,2.38
2023-04-02T02:12:07.565Z,2.41
2023-04-02T02:12:40.231Z,2.41
2023-04-02T02:13:12.917Z,2.39
2023-04-02T02:13:45.580Z,2.38
2023-04-02T02:14:18.258Z,2.39
2023-04-02T02:14:50.926Z,2.38
2023-04-02T02:15:23.600Z,2.39
2023-04-02T02:15:56.291Z,2.38
2023-04-02T02:16:29.041Z,2.39
2023-04-02T02:17:01.721Z,2.39
2023-04-02T02:17:34.475Z,2.41
2023-04-02T02:18:07.185Z,2.39
2023-04-02T02:18:39.844Z,2.39
2023-04-02T02:19:12.819Z,2.38
2023-04-02T02:19:45.482Z,2.38
2023-04-02T02:20:18.146Z,2.38
2023-04-02T02:20:50.815Z,2.36
2023-04-02T02:21:23.493Z,2.36
2023-04-02T02:21:56.164Z,2.38
2023-04-02T02:22:28.830Z,2.36
2023-04-02T02:23:01.492Z,2.38
2023-04-02T02:23:34.158Z,2.36
2023-04-02T02:24:06.822Z,2.36
2023-04-02T02:24:39.482Z,2.35
2023-04-02T02:25:12.152Z,2.36
2023-04-02T02:25:44.812Z,2.36
2023-04-02T02:26:17.515Z,2.36
2023-04-02T02:26:50.150Z,2.36
2023-04-02T02:27:22.850Z,2.36
2023-04-02T02:27:55.495Z,2.35
2023-04-02T02:28:28.145Z,2.36
2023-04-02T02:29:00.824Z,2.36
2023-04-02T02:29:33.473Z,2.36
2023-04-02T02:30:06.142Z,2.36
2023-04-02T02:30:38.811Z,2.38
2023-04-02T02:31:11.474Z,2.39
2023-04-02T02:31:44.187Z,2.36
2023-04-02T02:32:16.836Z,2.36
2023-04-02T02:32:49.510Z,2.36
2023-04-02T02:33:22.180Z,2.36
2023-04-02T02:33:54.847Z,2.36
2023-04-02T02:34:27.519Z,2.36
2023-04-02T02:35:00.213Z,2.36
2023-04-02T02:35:33.132Z,2.36
2023-04-02T02:35:59.517Z,2.38
2023-04-02T02:36:32.208Z,2.36
2023-04-02T02:37:04.865Z,2.36
2023-04-02T02:37:37.536Z,2.35
2023-04-02T02:38:10.196Z,2.35
2023-04-02T02:38:42.870Z,2.35
2023-04-02T02:39:15.527Z,2.35
2023-04-02T02:39:48.199Z,2.34
2023-04-02T02:40:20.867Z,2.35
2023-04-02T02:40:53.524Z,2.34
2023-04-02T02:41:26.244Z,2.34
2023-04-02T02:41:58.896Z,2.35
2023-04-02T02:42:31.556Z,2.34
2023-04-02T02:43:04.237Z,2.35
2023-04-02T02:43:36.904Z,2.34
2023-04-02T02:44:09.604Z,2.34
2023-04-02T02:44:42.264Z,2.35
2023-04-02T02:45:14.920Z,2.34
2023-04-02T02:45:47.644Z,2.34
2023-04-02T02:46:20.367Z,2.31
2023-04-02T02:46:53.060Z,2.30
2023-04-02T02:47:25.733Z,2.30
2023-04-02T02:47:58.427Z,2.34
2023-04-02T02:48:31.065Z,2.31
2023-04-02T02:49:03.718Z,2.31
2023-04-02T02:49:36.390Z,2.34
2023-04-02T02:50:09.058Z,2.34
2023-04-02T02:50:41.725Z,2.34
2023-04-02T02:51:15.587Z,2.34
2023-04-02T02:51:41.821Z,2.31
2023-04-02T02:52:14.484Z,2.34
2023-04-02T02:52:47.159Z,2.31
2023-04-02T02:53:19.833Z,2.30
2023-04-02T02:53:52.500Z,2.34
2023-04-02T02:54:25.158Z,2.31
2023-04-02T02:54:57.816Z,2.34
2023-04-02T02:55:30.478Z,2.31
2023-04-02T02:56:03.156Z,2.34
2023-04-02T02:56:35.859Z,2.31
2023-04-02T02:57:08.717Z,2.34
2023-04-02T02:57:41.398Z,2.34
2023-04-02T02:58:14.063Z,2.35
2023-04-02T02:58:46.821Z,2.34
2023-04-02T02:59:17.831Z,2.35
2023-04-02T02:59:50.493Z,2.34
2023-04-02T03:00:23.171Z,2.34
2023-04-02T03:00:55.835Z,2.35
2023-04-02T03:01:28.526Z,2.35
2023-04-02T03:02:01.190Z,2.34
2023-04-02T03:02:33.924Z,2.35
2023-04-02T03:03:06.762Z,2.35
2023-04-02T03:03:39.678Z,2.34
2023-04-02T03:04:12.495Z,2.35
2023-04-02T03:04:45.189Z,2.35
2023-04-02T03:05:17.862Z,2.34
2023-04-02T03:05:50.519Z,2.31
2023-04-02T03:06:23.195Z,2.34
2023-04-02T03:06:55.860Z,2.34
2023-04-02T03:07:28.528Z,2.34
2023-04-02T03:08:01.190Z,2.35
2023-04-02T03:08:33.887Z,2.35
2023-04-02T03:09:06.539Z,2.31
2023-04-02T03:09:39.211Z,2.31
2023-04-02T03:10:11.917Z,2.31
2023-04-02T03:10:42.964Z,2.34
2023-04-02T03:11:15.645Z,2.34
2023-04-02T03:11:48.352Z,2.35
2023-04-02T03:12:21.002Z,2.35
2023-04-02T03:12:53.693Z,2.34
2023-04-02T03:13:26.350Z,2.34
2023-04-02T03:13:59.013Z,2.31
2023-04-02T03:14:31.683Z,2.35
2023-04-02T03:15:04.348Z,2.34
2023-04-02T03:15:37.287Z,2.34
2023-04-02T03:16:03.712Z,2.31
2023-04-02T03:16:36.404Z,2.34
2023-04-02T03:17:09.069Z,2.34
2023-04-02T03:17:41.775Z,2.31
2023-04-02T03:18:14.499Z,2.34
2023-04-02T03:18:47.159Z,2.35
2023-04-02T03:19:19.850Z,2.35
2023-04-02T03:19:52.511Z,2.36
2023-04-02T03:20:25.182Z,2.34
2023-04-02T03:20:57.853Z,2.36
2023-04-02T03:21:30.535Z,2.35
2023-04-02T03:22:03.367Z,2.35
2023-04-02T03:22:36.030Z,2.35
2023-04-02T03:23:08.677Z,2.36
2023-04-02T03:23:41.340Z,2.36
2023-04-02T03:24:14.004Z,2.36
2023-04-02T03:24:46.682Z,2.36
2023-04-02T03:25:19.341Z,2.36
2023-04-02T03:25:52.004Z,2.35
2023-04-02T03:26:24.687Z,2.35
2023-04-02T03:26:57.374Z,2.35
2023-04-02T03:27:30.014Z,2.35
2023-04-02T03:28:02.671Z,2.36
2023-04-02T03:28:35.352Z,2.35
2023-04-02T03:29:08.031Z,2.36
2023-04-02T03:29:40.718Z,2.35
2023-04-02T03:30:13.375Z,2.36
2023-04-02T03:30:46.044Z,2.35
2023-04-02T03:31:18.752Z,2.35
2023-04-02T03:31:51.413Z,2.34
2023-04-02T03:32:24.043Z,2.35
2023-04-02T03:32:56.772Z,2.31
2023-04-02T03:33:29.450Z,2.35
2023-04-02T03:34:02.122Z,2.35
2023-04-02T03:34:34.789Z,2.36
2023-04-02T03:35:07.461Z,2.35
2023-04-02T03:35:40.239Z,2.36
2023-04-02T03:36:13.026Z,2.35
2023-04-02T03:36:45.704Z,2.35
2023-04-02T03:37:18.377Z,2.36
2023-04-02T03:37:51.059Z,2.35
2023-04-02T03:38:23.724Z,2.36
2023-04-02T03:38:56.397Z,2.35
2023-04-02T03:39:29.075Z,2.35
2023-04-02T03:40:01.763Z,2.35
2023-04-02T03:40:34.402Z,2.35
2023-04-02T03:41:07.074Z,2.36
2023-04-02T03:41:39.750Z,2.38
2023-04-02T03:42:12.442Z,2.39
2023-04-02T03:42:45.095Z,2.36
2023-04-02T03:43:16.168Z,2.36
2023-04-02T03:43:48.830Z,2.38
2023-04-02T03:44:21.501Z,2.38
2023-04-02T03:44:54.237Z,2.36
2023-04-02T03:45:26.892Z,2.39
2023-04-02T03:45:59.601Z,2.38
2023-04-02T03:46:32.327Z,2.41
2023-04-02T03:47:04.977Z,2.39
2023-04-02T03:47:37.672Z,2.39
2023-04-02T03:48:10.330Z,2.41
2023-04-02T03:48:43.020Z,2.39
2023-04-02T03:49:15.686Z,2.41
2023-04-02T03:49:48.357Z,2.43
2023-04-02T03:50:21.009Z,2.41
2023-04-02T03:50:53.686Z,2.39
2023-04-02T03:51:26.368Z,2.42
2023-04-02T03:51:59.153Z,2.39
2023-04-02T03:52:31.806Z,2.41
2023-04-02T03:53:04.489Z,2.41
2023-04-02T03:53:37.155Z,2.42
2023-04-02T03:54:09.826Z,2.41
2023-04-02T03:54:53.831Z,2.42
2023-04-02T03:55:14.576Z,2.39
2023-04-02T03:55:40.746Z,2.42
2023-04-02T03:56:13.417Z,2.42
2023-04-02T03:56:46.099Z,2.42
2023-04-02T03:57:18.813Z,2.42
2023-04-02T03:57:51.484Z,2.41
2023-04-02T03:58:24.150Z,2.42
2023-04-02T03:58:56.813Z,2.42
2023-04-02T03:59:29.478Z,2.43
2023-04-02T04:00:02.136Z,2.43
2023-04-02T04:00:34.799Z,2.45
2023-04-02T04:01:07.505Z,2.43
2023-04-02T04:01:40.184Z,2.43
2023-04-02T04:02:12.864Z,2.43
2023-04-02T04:02:45.587Z,2.46
2023-04-02T04:03:18.255Z,2.45
2023-04-02T04:03:50.945Z,2.45
2023-04-02T04:04:23.704Z,2.45
2023-04-02T04:04:56.377Z,2.45
2023-04-02T04:05:29.070Z,2.45
2023-04-02T04:06:01.719Z,2.46
2023-04-02T04:06:34.454Z,2.45
2023-04-02T04:07:07.084Z,2.45
2023-04-02T04:07:39.766Z,2.45
2023-04-02T04:08:12.422Z,2.43
2023-04-02T04:08:45.126Z,2.45
2023-04-02T04:09:17.761Z,2.43
2023-04-02T04:09:50.424Z,2.42
2023-04-02T04:10:23.113Z,2.43
2023-04-02T04:10:55.794Z,2.45
2023-04-02T04:11:28.491Z,2.45
2023-04-02T04:12:01.179Z,2.43
2023-04-02T04:12:33.865Z,2.42
2023-04-02T04:13:06.525Z,2.43
2023-04-02T04:13:39.177Z,2.43
2023-04-02T04:14:11.839Z,2.43
2023-04-02T04:14:45.407Z,2.43
2023-04-02T04:15:11.584Z,2.43
2023-04-02T04:15:44.256Z,2.45
2023-04-02T04:16:17.007Z,2.43
2023-04-02T04:16:49.715Z,2.43
2023-04-02T04:17:22.356Z,2.43
2023-04-02T04:17:55.087Z,2.45
2023-04-02T04:18:27.914Z,2.42
2023-04-02T04:19:00.579Z,2.45
2023-04-02T04:19:33.297Z,2.43
2023-04-02T04:20:05.930Z,2.45
2023-04-02T04:20:38.613Z,2.45
2023-04-02T04:21:11.266Z,2.45
2023-04-02T04:21:43.953Z,2.43
2023-04-02T04:22:16.622Z,2.43
2023-04-02T04:22:49.324Z,2.45
2023-04-02T04:23:22.002Z,2.46
2023-04-02T04:23:54.664Z,2.46
2023-04-02T04:24:27.360Z,2.45
2023-04-02T04:25:00.026Z,2.45
2023-04-02T04:25:32.690Z,2.46
2023-04-02T04:26:05.350Z,2.45
2023-04-02T04:26:38.049Z,2.43
2023-04-02T04:27:10.703Z,2.46
2023-04-02T04:27:43.409Z,2.46
2023-04-02T04:28:16.050Z,2.46
2023-04-02T04:28:48.718Z,2.46
2023-04-02T04:29:21.391Z,2.45
2023-04-02T04:29:54.216Z,2.48
2023-04-02T04:30:26.877Z,2.46
2023-04-02T04:30:59.618Z,2.46
2023-04-02T04:31:32.331Z,2.45
2023-04-02T04:32:05.012Z,2.46
2023-04-02T04:32:37.713Z,2.46
2023-04-02T04:33:10.413Z,2.48
2023-04-02T04:33:43.071Z,2.46
2023-04-02T04:34:15.740Z,2.46
2023-04-02T04:34:48.417Z,2.46
2023-04-02T04:35:21.071Z,2.45
2023-04-02T04:35:53.769Z,2.45
2023-04-02T04:36:26.421Z,2.45
2023-04-02T04:36:59.082Z,2.46
2023-04-02T04:37:31.764Z,2.46
2023-04-02T04:38:04.413Z,2.45
2023-04-02T04:38:37.085Z,2.46
2023-04-02T04:39:09.753Z,2.45
2023-04-02T04:39:42.415Z,2.45
2023-04-02T04:40:15.100Z,2.45
2023-04-02T04:40:47.783Z,2.46
2023-04-02T04:41:20.471Z,2.43
2023-04-02T04:41:53.140Z,2.46
2023-04-02T04:42:25.816Z,2.46
2023-04-02T04:42:58.517Z,2.46
2023-04-02T04:43:31.162Z,2.45
2023-04-02T04:44:03.845Z,2.46
2023-04-02T04:44:36.501Z,2.46
2023-04-02T04:45:09.163Z,2.46
2023-04-02T04:45:41.858Z,2.46
2023-04-02T04:46:14.577Z,2.48
2023-04-02T04:46:47.264Z,2.46
2023-04-02T04:47:19.941Z,2.48
2023-04-02T04:47:52.630Z,2.48
2023-04-02T04:48:25.278Z,2.48
2023-04-02T04:48:57.939Z,2.46
2023-04-02T04:49:30.613Z,2.48
2023-04-02T04:50:03.273Z,2.48
2023-04-02T04:50:35.944Z,2.46
2023-04-02T04:51:08.623Z,2.48
2023-04-02T04:51:41.282Z,2.46
2023-04-02T04:52:13.947Z,2.48
2023-04-02T04:52:46.618Z,2.48
2023-04-02T04:53:19.276Z,2.48
2023-04-02T04:53:51.947Z,2.46
2023-04-02T04:54:24.614Z,2.49
2023-04-02T04:54:57.276Z,2.49
2023-04-02T04:55:29.937Z,2.46
2023-04-02T04:56:15.902Z,2.48
2023-04-02T04:56:34.717Z,2.48
2023-04-02T04:57:00.919Z,2.48
2023-04-02T04:57:33.583Z,2.46
2023-04-02T04:58:06.265Z,2.48
2023-04-02T04:58:38.909Z,2.48
2023-04-02T04:59:11.563Z,2.48
2023-04-02T04:59:44.260Z,2.46
2023-04-02T05:00:16.933Z,2.48
2023-04-02T05:00:50.187Z,2.46
2023-04-02T05:01:16.445Z,2.46
2023-04-02T05:01:49.151Z,2.46
2023-04-02T05:02:21.802Z,2.46
2023-04-02T05:02:54.503Z,2.48
2023-04-02T05:03:27.181Z,2.48
2023-04-02T05:03:59.830Z,2.48
2023-04-02T05:04:32.510Z,2.49
2023-04-02T05:05:05.312Z,2.49
2023-04-02T05:05:38.016Z,2.48
2023-04-02T05:06:10.670Z,2.49
2023-04-02T05:06:43.369Z,2.52
2023-04-02T05:07:16.032Z,2.52
2023-04-02T05:07:48.727Z,2.52
2023-04-02T05:08:21.360Z,2.52
2023-04-02T05:08:54.028Z,2.52
2023-04-02T05:09:26.711Z,2.52
2023-04-02T05:09:59.407Z,2.53
2023-04-02T05:10:32.062Z,2.53
2023-04-02T05:11:04.719Z,2.54
2023-04-02T05:11:37.409Z,2.53
2023-04-02T05:12:10.081Z,2.54
2023-04-02T05:12:42.756Z,2.54
2023-04-02T05:13:15.442Z,2.56
2023-04-02T05:13:48.079Z,2.54
2023-04-02T05:14:20.746Z,2.54
2023-04-02T05:14:53.407Z,2.56
2023-04-02T05:15:26.100Z,2.56
2023-04-02T05:16:01.209Z,2.56
2023-04-02T05:16:27.698Z,2.56
2023-04-02T05:17:00.369Z,2.56
2023-04-02T05:17:33.070Z,2.54
2023-04-02T05:18:05.759Z,2.57
2023-04-02T05:18:38.415Z,2.59
2023-04-02T05:19:11.094Z,2.57
2023-04-02T05:19:43.765Z,2.59
2023-04-02T05:20:16.504Z,2.59
2023-04-02T05:20:49.174Z,2.59
2023-04-02T05:21:21.843Z,2.59
2023-04-02T05:21:54.500Z,2.57
2023-04-02T05:22:27.172Z,2.60
2023-04-02T05:22:59.838Z,2.59
2023-04-02T05:23:32.489Z,2.60
2023-04-02T05:24:05.159Z,2.60
2023-04-02T05:24:37.825Z,2.60
2023-04-02T05:25:10.497Z,2.60
2023-04-02T05:25:43.153Z,2.61
2023-04-02T05:26:15.857Z,2.60
2023-04-02T05:26:48.511Z,2.63
2023-04-02T05:27:21.175Z,2.63
2023-04-02T05:27:53.835Z,2.63
2023-04-02T05:28:26.533Z,2.61
2023-04-02T05:28:59.158Z,2.64
2023-04-02T05:29:31.827Z,2.64
2023-04-02T05:30:04.499Z,2.64
2023-04-02T05:30:37.169Z,2.64
2023-04-02T05:31:09.840Z,2.64
2023-04-02T05:31:42.632Z,2.64
2023-04-02T05:32:15.279Z,2.64
2023-04-02T05:32:47.997Z,2.64
2023-04-02T05:33:20.651Z,2.64
2023-04-02T05:33:53.314Z,2.63
2023-04-02T05:34:25.987Z,2.63
2023-04-02T05:34:58.652Z,2.64
2023-04-02T05:35:31.319Z,2.64
2023-04-02T05:36:04.045Z,2.64
2023-04-02T05:36:36.769Z,2.66
2023-04-02T05:37:09.440Z,2.64
2023-04-02T05:37:42.111Z,2.66
2023-04-02T05:38:14.779Z,2.66
2023-04-02T05:38:47.449Z,2.66
2023-04-02T05:39:20.125Z,2.66
2023-04-02T05:39:52.782Z,2.66
2023-04-02T05:40:25.461Z,2.67
2023-04-02T05:40:58.131Z,2.67
2023-04-02T05:41:30.807Z,2.69
2023-04-02T05:42:03.483Z,2.69
2023-04-02T05:42:36.154Z,2.71
2023-04-02T05:43:08.809Z,2.69
2023-04-02T05:43:41.525Z,2.71
2023-04-02T05:44:14.166Z,2.71
2023-04-02T05:44:46.835Z,2.69
2023-04-02T05:45:19.512Z,2.72
2023-04-02T05:45:52.189Z,2.71
2023-04-02T05:46:24.930Z,2.69
2023-04-02T05:46:57.645Z,2.72
2023-04-02T05:47:30.356Z,2.69
2023-04-02T05:48:03.032Z,2.72
2023-04-02T05:48:35.666Z,2.72
2023-04-02T05:49:08.340Z,2.72
2023-04-02T05:49:41.010Z,2.71
2023-04-02T05:50:13.676Z,2.72
2023-04-02T05:50:46.342Z,2.72
2023-04-02T05:51:19.036Z,2.72
2023-04-02T05:51:51.704Z,2.72
2023-04-02T05:52:24.369Z,2.75
2023-04-02T05:52:57.049Z,2.77
2023-04-02T05:53:29.707Z,2.75
2023-04-02T05:54:02.382Z,2.78
2023-04-02T05:54:35.064Z,2.79
2023-04-02T05:55:07.735Z,2.78
2023-04-02T05:55:40.415Z,2.78
2023-04-02T05:56:13.086Z,2.79
2023-04-02T05:56:45.768Z,2.79
2023-04-02T05:57:19.330Z,2.78
2023-04-02T05:57:56.675Z,2.81
2023-04-02T05:58:46.797Z,2.81
2023-04-02T05:59:19.576Z,2.81
2023-04-02T05:59:52.221Z,2.81
2023-04-02T06:00:24.883Z,2.84
2023-04-02T06:00:57.553Z,2.82
2023-04-02T06:01:30.228Z,2.84
2023-04-02T06:02:03.009Z,2.84
2023-04-02T06:02:35.758Z,2.85
2023-04-02T06:03:08.592Z,2.87
2023-04-02T06:03:41.347Z,2.92
2023-04-02T06:04:14.071Z,2.93
2023-04-02T06:04:46.748Z,2.96
2023-04-02T06:05:19.414Z,2.95
2023-04-02T06:05:52.088Z,2.96
2023-04-02T06:06:24.780Z,2.97
2023-04-02T06:06:57.447Z,2.97
2023-04-02T06:07:30.124Z,2.96
2023-04-02T06:08:02.787Z,2.97
2023-04-02T06:08:35.461Z,2.97
2023-04-02T06:09:08.134Z,2.97
2023-04-02T06:09:40.800Z,2.99
2023-04-02T06:10:13.474Z,3.02
2023-04-02T06:10:46.149Z,3.00
2023-04-02T06:11:18.848Z,3.02
2023-04-02T06:11:51.513Z,3.03
2023-04-02T06:12:24.213Z,3.05
2023-04-02T06:12:56.887Z,3.05
2023-04-02T06:13:29.582Z,3.06
2023-04-02T06:14:02.264Z,3.08
2023-04-02T06:14:34.981Z,3.10
2023-04-02T06:15:07.631Z,3.11
2023-04-02T06:15:40.306Z,3.13
2023-04-02T06:16:12.994Z,3.14
2023-04-02T06:16:44.143Z,3.17
2023-04-02T06:17:16.789Z,3.20
2023-04-02T06:17:49.495Z,3.24
2023-04-02T06:18:22.147Z,3.28
2023-04-02T06:18:54.825Z,3.29
2023-04-02T06:19:27.510Z,3.31
2023-04-02T06:20:00.178Z,3.31
2023-04-02T06:20:32.826Z,3.29
2023-04-02T06:21:05.501Z,3.31
2023-04-02T06:21:38.179Z,3.31
2023-04-02T06:22:10.867Z,3.32
2023-04-02T06:22:43.534Z,3.31
2023-04-02T06:23:16.206Z,3.32
2023-04-02T06:23:48.875Z,3.33
2023-04-02T06:24:21.553Z,3.35
2023-04-02T06:24:54.220Z,3.35
2023-04-02T06:25:26.878Z,3.39
2023-04-02T06:25:59.556Z,3.36
2023-04-02T06:26:32.255Z,3.40
2023-04-02T06:27:04.919Z,3.35
2023-04-02T06:27:37.587Z,3.36
2023-04-02T06:28:10.248Z,3.39
2023-04-02T06:28:42.915Z,3.36
2023-04-02T06:29:15.617Z,3.35
2023-04-02T06:29:48.267Z,3.35
2023-04-02T06:30:20.946Z,3.33
2023-04-02T06:30:53.636Z,3.36
2023-04-02T06:31:26.359Z,3.33
2023-04-02T06:31:59.063Z,3.35
2023-04-02T06:32:31.800Z,3.33
2023-04-02T06:33:04.712Z,3.32
2023-04-02T06:33:37.477Z,3.32
2023-04-02T06:34:10.136Z,3.35
2023-04-02T06:34:42.825Z,3.33
2023-04-02T06:35:15.477Z,3.33
2023-04-02T06:35:48.180Z,3.36
2023-04-02T06:36:20.913Z,3.35
2023-04-02T06:36:53.590Z,3.33
2023-04-02T06:37:26.268Z,3.33
2023-04-02T06:37:58.931Z,3.35
2023-04-02T06:38:31.601Z,3.42
2023-04-02T06:39:04.260Z,3.39
2023-04-02T06:39:36.942Z,3.40
2023-04-02T06:40:09.602Z,3.39
2023-04-02T06:40:42.276Z,3.36
2023-04-02T06:41:14.950Z,3.39
2023-04-02T06:41:47.628Z,3.39
2023-04-02T06:42:20.304Z,3.39
2023-04-02T06:42:52.970Z,3.43
2023-04-02T06:43:25.634Z,3.45
2023-04-02T06:43:58.302Z,3.52
2023-04-02T06:44:30.998Z,3.58
2023-04-02T06:45:03.661Z,3.57
2023-04-02T06:45:36.604Z,3.58
2023-04-02T06:46:02.911Z,3.61
2023-04-02T06:46:35.687Z,3.66
2023-04-02T06:47:08.431Z,3.62
2023-04-02T06:47:41.145Z,3.61
2023-04-02T06:48:13.831Z,3.61
2023-04-02T06:48:46.502Z,3.61
2023-04-02T06:49:19.184Z,3.61
2023-04-02T06:49:51.847Z,3.61
2023-04-02T06:50:24.520Z,3.62
2023-04-02T06:50:57.197Z,3.60
2023-04-02T06:51:29.893Z,3.60
2023-04-02T06:52:02.576Z,3.65
2023-04-02T06:52:35.298Z,3.65
2023-04-02T06:53:07.957Z,3.65
2023-04-02T06:53:40.623Z,3.68
2023-04-02T06:54:13.291Z,3.65
2023-04-02T06:54:45.983Z,3.61
2023-04-02T06:55:18.701Z,3.65
2023-04-02T06:55:51.377Z,3.69
2023-04-02T06:56:24.067Z,3.69
2023-04-02T06:56:56.784Z,3.68
2023-04-02T06:57:29.545Z,3.69
2023-04-02T06:58:02.206Z,3.70
2023-04-02T06:58:34.864Z,3.70
2023-04-02T06:59:07.582Z,3.70
2023-04-02T06:59:40.293Z,3.70
2023-04-02T07:00:12.946Z,3.72
2023-04-02T07:00:45.613Z,3.73
2023-04-02T07:01:18.296Z,3.78
2023-04-02T07:01:50.994Z,3.79
2023-04-02T07:02:23.682Z,3.79
2023-04-02T07:02:56.438Z,3.78
2023-04-02T07:03:29.104Z,3.80
2023-04-02T07:04:01.775Z,3.78
2023-04-02T07:04:34.520Z,3.79
2023-04-02T07:05:07.303Z,3.79
2023-04-02T07:05:42.986Z,3.79
2023-04-02T07:06:09.274Z,3.78
2023-04-02T07:06:41.964Z,3.78
2023-04-02T07:07:14.627Z,3.78
2023-04-02T07:07:47.305Z,3.78
2023-04-02T07:08:19.984Z,3.79
2023-04-02T07:08:52.701Z,3.80
2023-04-02T07:09:25.345Z,3.80
2023-04-02T07:09:58.011Z,3.83
2023-04-02T07:10:30.692Z,3.84
2023-04-02T07:11:03.369Z,3.88
2023-04-02T07:11:36.067Z,3.87
2023-04-02T07:12:08.747Z,3.86
2023-04-02T07:12:41.397Z,3.83
2023-04-02T07:13:14.054Z,3.79
2023-04-02T07:13:46.726Z,3.83